Time;durP1;ratioP1;P1;durP2;ratioP2;P2;SDS_P1;SDS_P2;PMS_P1;PMS_P2;Temp;Humidity;BMP_temperature;BMP_pressure;BME280_temperature;BME280_humidity;BME280_pressure;Samples;Min_cycle;Max_cycle;Signal;HPM_P1;HPM_P2
2023/05/30 00:00:15;;;;;;;4.13;0.80;;;12.00;95.40;;;;;;5051307;28;20025;-53
2023/05/30 00:02:43;;;;;;;2.93;0.80;;;11.90;95.50;;;;;;5051361;28;20061;-50
2023/05/30 00:05:09;;;;;;;4.20;1.08;;;11.90;95.50;;;;;;5051299;28;20035;-52
2023/05/30 00:07:36;;;;;;;2.20;0.63;;;11.80;95.80;;;;;;5050518;28;20052;-51
2023/05/30 00:10:02;;;;;;;5.23;0.73;;;11.80;95.90;;;;;;5051336;28;20114;-50
2023/05/30 00:12:28;;;;;;;6.67;1.00;;;11.70;95.80;;;;;;5051426;28;20033;-51
2023/05/30 00:14:55;;;;;;;6.20;1.13;;;11.70;96.10;;;;;;5051191;28;20087;-51
2023/05/30 00:17:22;;;;;;;6.00;1.30;;;11.60;96.20;;;;;;5051449;28;20025;-49
2023/05/30 00:19:48;;;;;;;3.90;1.10;;;11.60;96.30;;;;;;5051258;28;20123;-50
2023/05/30 00:22:14;;;;;;;6.40;1.70;;;11.60;96.40;;;;;;5051032;28;20043;-49
2023/05/30 00:24:40;;;;;;;6.00;1.57;;;11.60;96.60;;;;;;5051127;28;20025;-50
2023/05/30 00:27:06;;;;;;;4.80;1.10;;;11.50;96.80;;;;;;5051189;28;20508;-50
2023/05/30 00:29:31;;;;;;;4.87;1.20;;;11.60;97.00;;;;;;5051375;28;20021;-53
2023/05/30 00:31:58;;;;;;;4.83;1.10;;;11.50;96.90;;;;;;5050856;28;20025;-48
2023/05/30 00:34:24;;;;;;;6.13;1.20;;;11.50;97.00;;;;;;5032988;28;20033;-48
2023/05/30 00:36:50;;;;;;;3.20;1.00;;;11.50;97.10;;;;;;5051342;28;20389;-51
2023/05/30 00:39:16;;;;;;;7.07;1.20;;;11.50;97.30;;;;;;5051306;28;20039;-49
2023/05/30 00:41:42;;;;;;;5.03;0.97;;;11.40;97.40;;;;;;5032983;28;20036;-49
2023/05/30 00:44:07;;;;;;;3.23;1.00;;;11.50;97.50;;;;;;5051024;28;20028;-52
2023/05/30 00:46:35;;;;;;;5.33;1.03;;;11.40;97.60;;;;;;5051092;28;20029;-50
2023/05/30 00:49:01;;;;;;;5.13;1.20;;;11.50;97.90;;;;;;5051343;28;20435;-49
2023/05/30 00:51:28;;;;;;;4.93;1.53;;;11.40;97.90;;;;;;5050856;28;20079;-49
2023/05/30 00:53:55;;;;;;;4.13;1.27;;;11.40;98.10;;;;;;5050862;28;20025;-52
2023/05/30 00:56:26;;;;;;;4.70;0.90;;;11.30;98.20;;;;;;5051079;28;20036;-49
2023/05/30 00:58:53;;;;;;;2.47;1.20;;;11.30;98.50;;;;;;5051360;28;20353;-49
2023/05/30 01:01:20;;;;;;;6.43;1.20;;;11.30;98.70;;;;;;5032695;28;20037;-49
2023/05/30 01:03:49;;;;;;;3.43;1.03;;;11.20;98.50;;;;;;5050671;28;20048;-50
2023/05/30 01:06:17;;;;;;;6.57;0.90;;;11.20;98.60;;;;;;5050545;28;20021;-50
2023/05/30 01:08:42;;;;;;;6.33;1.30;;;11.10;99.00;;;;;;5050887;28;20025;-48
2023/05/30 01:11:37;;;;;;;3.80;1.00;;;11.10;99.20;;;;;;5050711;28;20032;-48
2023/05/30 01:14:22;;;;;;;5.37;1.37;;;11.10;99.30;;;;;;5050700;28;20025;-49
2023/05/30 01:16:58;;;;;;;5.03;1.00;;;11.00;99.80;;;;;;5050857;28;20390;-50
2023/05/30 01:19:50;;;;;;;4.67;0.80;;;10.90;99.60;;;;;;5036384;28;20036;-50
2023/05/30 01:22:27;;;;;;;5.40;1.33;;;10.90;99.90;;;;;;5035792;28;20493;-49
2023/05/30 01:25:11;;;;;;;4.90;1.03;;;10.90;99.90;;;;;;5054419;28;20120;-50
2023/05/30 01:27:51;;;;;;;5.57;1.50;;;10.90;99.90;;;;;;5036505;28;20029;-51
2023/05/30 01:30:19;;;;;;;6.10;1.07;;;10.90;99.90;;;;;;5036338;28;20025;-50
2023/05/30 01:32:45;;;;;;;3.23;1.17;;;10.80;99.90;;;;;;5036225;28;20029;-50
2023/05/30 01:35:21;;;;;;;5.20;1.27;;;10.70;99.90;;;;;;5054025;28;20393;-49
2023/05/30 01:37:47;;;;;;;6.53;1.03;;;10.70;99.90;;;;;;5054026;28;20067;-52
2023/05/30 01:40:20;;;;;;;4.93;1.27;;;10.60;99.90;;;;;;5053918;28;20033;-50
2023/05/30 01:42:52;;;;;;;10.80;1.60;;;10.60;99.90;;;;;;5053913;28;20523;-52
2023/05/30 01:45:30;;;;;;;6.63;1.60;;;10.50;99.90;;;;;;5053866;28;20056;-53
2023/05/30 01:48:00;;;;;;;5.53;1.30;;;10.50;99.90;;;;;;5035952;28;20060;-49
2023/05/30 01:50:38;;;;;;;7.00;1.20;;;10.50;99.90;;;;;;5035554;28;20029;-50
2023/05/30 01:53:08;;;;;;;4.47;1.40;;;10.50;99.90;;;;;;5035854;28;20025;-50
2023/05/30 01:55:37;;;;;;;2.37;0.90;;;10.50;99.90;;;;;;5035528;28;20033;-49
2023/05/30 01:58:05;;;;;;;7.63;1.20;;;10.40;99.90;;;;;;5053838;28;20556;-51
2023/05/30 02:00:31;;;;;;;6.37;1.20;;;10.40;99.90;;;;;;5035562;28;20048;-50
2023/05/30 02:02:57;;;;;;;4.47;1.20;;;10.40;99.90;;;;;;5053531;28;20078;-49
2023/05/30 02:05:24;;;;;;;4.87;1.17;;;10.30;99.90;;;;;;5053182;28;20131;-50
2023/05/30 02:07:50;;;;;;;6.63;1.23;;;10.30;99.90;;;;;;5035374;28;20719;-50
2023/05/30 02:10:16;;;;;;;3.23;1.00;;;10.30;99.90;;;;;;5035266;28;20029;-49
2023/05/30 02:12:48;;;;;;;4.47;1.10;;;10.30;99.90;;;;;;5035284;28;20025;-53
2023/05/30 02:15:14;;;;;;;5.47;1.27;;;10.30;99.90;;;;;;5018501;28;20035;-51
2023/05/30 02:17:41;;;;;;;6.70;1.30;;;10.30;99.90;;;;;;5035281;28;20032;-54
2023/05/30 02:20:09;;;;;;;8.53;1.10;;;10.30;99.90;;;;;;5035147;28;20049;-54
2023/05/30 02:22:35;;;;;;;4.77;1.23;;;10.30;99.90;;;;;;5034767;28;20032;-52
2023/05/30 02:25:01;;;;;;;5.33;1.10;;;10.30;99.90;;;;;;5034902;28;20021;-54
2023/05/30 02:27:27;;;;;;;5.80;1.40;;;10.30;99.90;;;;;;5052995;28;20040;-50
2023/05/30 02:29:54;;;;;;;6.50;1.17;;;10.20;99.90;;;;;;5034175;28;20091;-51
2023/05/30 02:32:19;;;;;;;3.97;1.07;;;10.20;99.90;;;;;;5034633;28;20025;-54
2023/05/30 02:34:45;;;;;;;6.77;1.90;;;10.20;99.90;;;;;;5034519;28;20025;-54
2023/05/30 02:37:11;;;;;;;4.77;1.30;;;10.10;99.90;;;;;;5034791;28;20112;-53
2023/05/30 02:39:38;;;;;;;5.53;1.50;;;10.10;99.90;;;;;;5034766;28;20079;-50
2023/05/30 02:42:05;;;;;;;7.53;1.43;;;10.10;99.90;;;;;;5034417;28;20521;-50
2023/05/30 02:44:33;;;;;;;;;;;10.00;99.90;;;;;;5035042;28;20131;-52
2023/05/30 02:46:58;;;;;;;6.90;1.80;;;10.00;99.90;;;;;;5052535;28;20011;-54
2023/05/30 02:49:24;;;;;;;5.53;1.37;;;10.00;99.90;;;;;;5034458;28;20025;-54
2023/05/30 02:51:50;;;;;;;9.13;1.20;;;10.00;99.90;;;;;;5052155;28;20028;-53
2023/05/30 02:54:20;;;;;;;4.23;1.50;;;10.00;99.90;;;;;;5034413;28;20021;-51
2023/05/30 02:57:05;;;;;;;7.70;1.47;;;10.00;99.90;;;;;;5034492;28;20032;-50
2023/05/30 02:59:51;;;;;;;5.80;1.00;;;10.00;99.90;;;;;;5034459;28;20041;-54
2023/05/30 03:02:17;;;;;;;5.37;1.67;;;10.00;99.90;;;;;;5033976;28;20029;-53
2023/05/30 03:04:45;;;;;;;5.33;1.73;;;10.00;99.90;;;;;;5034073;28;20094;-50
2023/05/30 03:07:12;;;;;;;5.13;1.60;;;10.00;99.90;;;;;;5034128;28;20029;-54
2023/05/30 03:09:40;;;;;;;9.00;1.53;;;10.00;99.90;;;;;;5034312;28;20033;-53
2023/05/30 03:12:08;;;;;;;8.27;1.30;;;10.00;99.90;;;;;;5033847;28;20025;-50
2023/05/30 03:14:34;;;;;;;11.50;1.50;;;9.90;99.90;;;;;;5033828;28;20636;-49
2023/05/30 03:17:00;;;;;;;6.30;1.30;;;9.90;99.90;;;;;;5034102;28;20028;-49
2023/05/30 03:19:26;;;;;;;6.70;1.40;;;9.90;99.90;;;;;;5051957;28;20131;-51
2023/05/30 03:21:55;;;;;;;5.50;1.20;;;9.90;99.90;;;;;;5033354;28;20062;-49
2023/05/30 03:24:22;;;;;;;7.27;1.27;;;9.90;99.90;;;;;;5051758;28;20044;-54
2023/05/30 03:26:49;;;;;;;7.67;1.90;;;9.90;99.90;;;;;;5051649;28;20056;-50
2023/05/30 03:29:16;;;;;;;6.10;1.40;;;9.90;99.90;;;;;;5033734;28;20036;-51
2023/05/30 03:31:42;;;;;;;5.17;1.40;;;9.90;99.90;;;;;;5033491;28;20045;-54
2023/05/30 03:34:09;;;;;;;6.63;1.37;;;9.90;99.90;;;;;;5033466;28;20025;-53
2023/05/30 03:36:35;;;;;;;5.67;1.47;;;9.90;99.90;;;;;;5029369;28;20033;-52
2023/05/30 03:39:01;;;;;;;8.70;1.50;;;10.00;99.90;;;;;;5030431;28;20036;-53
2023/05/30 03:41:27;;;;;;;4.07;1.70;;;10.00;99.90;;;;;;5042881;28;20405;-50
2023/05/30 03:43:53;;;;;;;7.63;1.67;;;9.90;99.90;;;;;;5049240;28;20134;-50
2023/05/30 03:46:20;;;;;;;6.33;1.70;;;10.00;99.90;;;;;;5030740;28;20526;-53
2023/05/30 03:48:47;;;;;;;8.37;2.23;;;10.00;99.90;;;;;;5031347;28;20367;-49
2023/05/30 03:51:13;;;;;;;6.97;1.93;;;10.00;99.90;;;;;;5048519;28;20192;-53
2023/05/30 03:53:41;;;;;;;8.10;1.57;;;10.00;99.90;;;;;;5048883;28;20032;-52
2023/05/30 03:56:07;;;;;;;7.70;2.23;;;10.00;99.90;;;;;;5028646;28;20032;-53
2023/05/30 03:58:33;;;;;;;9.03;2.60;;;10.10;99.90;;;;;;5030637;28;20548;-53
2023/05/30 04:01:00;;;;;;;7.77;2.07;;;10.10;99.90;;;;;;5030648;28;20033;-50
2023/05/30 04:03:28;;;;;;;10.53;2.87;;;10.10;99.90;;;;;;5030665;28;20040;-49
2023/05/30 04:05:58;;;;;;;9.13;2.23;;;10.10;99.90;;;;;;5030422;28;20025;-53
2023/05/30 04:08:25;;;;;;;7.83;2.03;;;10.20;99.90;;;;;;5030709;28;20219;-50
2023/05/30 04:10:51;;;;;;;6.40;2.20;;;10.20;99.90;;;;;;5030172;28;20028;-49
2023/05/30 04:13:17;;;;;;;8.67;2.00;;;10.20;99.90;;;;;;5030613;28;20021;-50
2023/05/30 04:15:44;;;;;;;6.93;1.97;;;10.30;99.90;;;;;;5030277;28;20053;-53
2023/05/30 04:18:10;;;;;;;11.43;2.33;;;10.30;99.90;;;;;;5030782;28;20464;-51
2023/05/30 04:20:36;;;;;;;7.53;2.20;;;10.40;99.90;;;;;;5048485;28;20135;-51
2023/05/30 04:23:02;;;;;;;5.23;2.00;;;10.40;99.90;;;;;;5030516;28;20123;-54
2023/05/30 04:25:28;;;;;;;6.73;3.00;;;10.40;99.90;;;;;;5030130;28;20029;-52
2023/05/30 04:27:54;;;;;;;10.27;2.40;;;10.40;99.90;;;;;;5030658;28;20029;-53
2023/05/30 04:30:20;;;;;;;7.73;2.73;;;10.50;99.90;;;;;;5030481;28;20492;-51
2023/05/30 04:32:48;;;;;;;7.03;2.37;;;10.50;99.90;;;;;;5026831;28;20059;-50
2023/05/30 04:35:15;;;;;;;7.93;2.70;;;10.50;99.90;;;;;;5030353;28;20052;-52
2023/05/30 04:37:44;;;;;;;7.07;2.10;;;10.60;99.90;;;;;;5030593;28;20060;-54
2023/05/30 04:40:12;;;;;;;9.87;2.27;;;10.60;99.90;;;;;;5030402;28;20465;-54
2023/05/30 04:42:41;;;;;;;5.53;2.30;;;10.60;99.90;;;;;;5048405;28;20485;-51
2023/05/30 04:45:14;;;;;;;10.15;3.47;;;10.60;99.90;;;;;;5030084;28;20032;-49
2023/05/30 04:47:45;;;;;;;10.03;3.07;;;10.60;99.90;;;;;;5030401;28;20116;-50
2023/05/30 04:50:14;;;;;;;7.40;3.07;;;10.60;99.90;;;;;;5030295;28;20546;-53
2023/05/30 04:52:41;;;;;;;8.23;2.60;;;10.60;99.90;;;;;;5030862;28;20469;-52
2023/05/30 04:55:08;;;;;;;5.17;2.27;;;10.70;99.90;;;;;;5029692;28;20025;-54
2023/05/30 04:57:33;;;;;;;11.60;2.83;;;10.70;99.90;;;;;;5053031;28;20068;-50
2023/05/30 04:59:59;;;;;;;8.63;2.87;;;10.70;99.90;;;;;;5052702;28;20106;-51
2023/05/30 05:02:28;;;;;;;7.47;3.03;;;10.70;99.90;;;;;;5052004;28;20036;-52
2023/05/30 05:04:54;;;;;;;5.82;2.50;;;10.80;99.90;;;;;;5051941;28;20516;-53
2023/05/30 05:07:20;;;;;;;7.77;3.03;;;10.80;99.90;;;;;;5051917;28;20133;-54
2023/05/30 05:09:45;;;;;;;8.93;2.70;;;10.80;99.90;;;;;;5052114;28;20053;-53
2023/05/30 05:12:13;;;;;;;15.27;2.97;;;10.80;99.90;;;;;;5051737;28;20025;-54
2023/05/30 05:14:40;;;;;;;9.93;2.97;;;10.90;99.90;;;;;;5051535;28;20112;-54
2023/05/30 05:17:06;;;;;;;8.00;2.23;;;10.90;99.90;;;;;;5052330;28;20108;-51
2023/05/30 05:19:32;;;;;;;6.57;2.67;;;10.90;99.90;;;;;;5051985;28;20461;-53
2023/05/30 05:21:58;;;;;;;9.67;3.53;;;10.90;99.90;;;;;;5043083;28;20083;-50
2023/05/30 05:24:23;;;;;;;8.57;2.70;;;11.00;99.90;;;;;;5050910;28;20194;-52
2023/05/30 05:26:49;;;;;;;8.97;3.33;;;11.10;99.90;;;;;;5051723;28;20116;-52
2023/05/30 05:29:15;;;;;;;6.90;3.33;;;11.10;99.90;;;;;;5050490;28;20044;-52
2023/05/30 05:31:41;;;;;;;7.97;3.07;;;11.10;99.90;;;;;;5051361;28;20062;-52
2023/05/30 05:34:06;;;;;;;10.33;3.20;;;11.20;99.90;;;;;;5051337;28;20056;-52
2023/05/30 05:36:32;;;;;;;7.27;2.60;;;11.20;99.90;;;;;;5052376;28;20108;-50
2023/05/30 05:38:58;;;;;;;11.87;2.60;;;11.20;99.90;;;;;;5029596;28;20471;-48
2023/05/30 05:41:24;;;;;;;8.67;2.57;;;11.20;99.90;;;;;;5051359;28;20086;-50
2023/05/30 05:43:50;;;;;;;10.23;3.00;;;11.20;99.90;;;;;;5051731;28;20426;-52
2023/05/30 05:46:16;;;;;;;5.70;2.53;;;11.30;99.90;;;;;;5033218;28;20036;-51
2023/05/30 05:48:41;;;;;;;5.40;2.70;;;11.30;99.90;;;;;;5051989;28;20087;-52
2023/05/30 05:51:07;;;;;;;8.63;3.00;;;11.30;99.90;;;;;;5051672;28;20024;-53
2023/05/30 05:53:33;;;;;;;9.70;2.87;;;11.40;99.90;;;;;;5051473;28;20062;-51
2023/05/30 05:56:00;;;;;;;9.43;3.30;;;11.50;99.90;;;;;;5051276;28;20021;-53
2023/05/30 05:58:26;;;;;;;7.93;2.73;;;11.50;99.90;;;;;;5051121;28;20032;-54
2023/05/30 06:00:52;;;;;;;10.50;3.77;;;11.60;99.90;;;;;;5051385;28;20508;-53
2023/05/30 06:03:17;;;;;;;6.37;2.93;;;11.60;99.90;;;;;;5051166;28;20086;-54
2023/05/30 06:05:43;;;;;;;5.77;2.70;;;11.70;99.90;;;;;;5050216;28;20537;-50
2023/05/30 06:08:09;;;;;;;6.30;2.90;;;11.90;99.90;;;;;;5051677;28;20098;-53
2023/05/30 06:10:34;;;;;;;11.87;4.13;;;11.90;99.90;;;;;;5051519;28;20031;-51
2023/05/30 06:13:00;;;;;;;8.47;3.77;;;12.00;99.90;;;;;;5052651;28;20028;-53
2023/05/30 06:15:26;;;;;;;8.00;2.97;;;12.10;99.90;;;;;;5052188;28;20029;-49
2023/05/30 06:17:51;;;;;;;6.53;2.47;;;12.20;99.90;;;;;;5052428;28;21328;-49
2023/05/30 06:20:17;;;;;;;7.87;3.10;;;12.50;99.90;;;;;;5033975;28;20049;-54
2023/05/30 06:22:43;;;;;;;9.03;3.33;;;12.50;99.90;;;;;;5039020;28;20397;-54
2023/05/30 06:25:09;;;;;;;6.60;3.23;;;12.50;99.90;;;;;;5056093;28;20025;-54
2023/05/30 06:27:35;;;;;;;8.00;3.17;;;12.60;99.90;;;;;;5039286;28;20053;-54
2023/05/30 06:30:01;;;;;;;9.37;3.23;;;12.50;99.90;;;;;;5056670;28;20021;-53
2023/05/30 06:32:26;;;;;;;7.83;3.30;;;12.50;99.90;;;;;;5054113;28;20448;-54
2023/05/30 06:34:52;;;;;;;6.00;3.00;;;12.50;99.90;;;;;;5055287;28;20036;-53
2023/05/30 06:37:18;;;;;;;5.57;3.07;;;12.60;99.90;;;;;;5055751;28;20102;-50
2023/05/30 06:39:44;;;;;;;8.90;3.60;;;12.50;99.90;;;;;;5052429;28;20064;-48
2023/05/30 06:42:10;;;;;;;7.27;3.13;;;12.50;99.90;;;;;;5050451;28;20017;-48
2023/05/30 06:44:42;;;;;;;8.20;4.03;;;12.50;99.90;;;;;;5050231;28;20025;-48
2023/05/30 06:47:08;;;;;;;7.57;4.00;;;12.50;99.90;;;;;;5050329;28;20044;-50
2023/05/30 06:49:34;;;;;;;8.37;3.50;;;12.50;99.90;;;;;;5050105;28;20116;-52
2023/05/30 06:51:59;;;;;;;9.87;3.40;;;12.60;99.90;;;;;;5050290;28;20016;-52
2023/05/30 06:54:26;;;;;;;6.97;3.30;;;12.80;99.90;;;;;;5031826;28;20029;-51
2023/05/30 06:56:51;;;;;;;7.33;3.33;;;12.80;99.90;;;;;;5050287;28;20402;-53
2023/05/30 06:59:17;;;;;;;7.93;3.33;;;13.00;99.90;;;;;;5050035;28;20029;-53
2023/05/30 07:01:43;;;;;;;5.87;3.20;;;13.10;99.90;;;;;;5049769;28;20025;-52
2023/05/30 07:04:09;;;;;;;6.88;3.08;;;13.10;99.90;;;;;;5049838;28;20055;-53
2023/05/30 07:06:35;;;;;;;14.40;5.10;;;13.20;99.90;;;;;;5049960;28;20070;-53
2023/05/30 07:09:00;;;;;;;7.77;3.67;;;13.30;99.90;;;;;;5050344;28;20355;-52
2023/05/30 07:11:26;;;;;;;10.13;4.68;;;13.40;99.90;;;;;;5049332;28;20044;-54
2023/05/30 07:13:52;;;;;;;8.77;4.25;;;13.40;99.90;;;;;;5050074;28;20032;-53
2023/05/30 07:16:18;;;;;;;8.32;3.75;;;13.50;99.90;;;;;;5049213;28;20025;-53
2023/05/30 07:18:44;;;;;;;7.07;3.45;;;13.60;99.90;;;;;;5050158;28;20029;-52
2023/05/30 07:21:10;;;;;;;8.40;3.28;;;13.70;99.90;;;;;;5049649;28;20167;-53
2023/05/30 07:23:35;;;;;;;11.18;3.35;;;13.80;99.90;;;;;;5049878;28;20048;-51
2023/05/30 07:26:01;;;;;;;10.60;3.13;;;14.00;99.90;;;;;;5049524;28;20029;-53
2023/05/30 07:28:27;;;;;;;9.77;3.40;;;14.10;99.80;;;;;;5049398;28;20028;-52
2023/05/30 07:30:53;;;;;;;6.88;3.55;;;14.20;99.40;;;;;;5049159;28;20466;-52
2023/05/30 07:33:18;;;;;;;10.82;3.63;;;14.30;99.40;;;;;;5049233;28;20491;-49
2023/05/30 07:35:45;;;;;;;10.00;2.88;;;14.30;99.40;;;;;;5049145;28;20327;-50
2023/05/30 07:38:10;;;;;;;8.68;2.60;;;14.30;99.90;;;;;;5049234;28;20029;-54
2023/05/30 07:40:36;;;;;;;5.05;2.60;;;14.50;99.30;;;;;;5048823;28;20025;-51
2023/05/30 07:43:02;;;;;;;7.03;2.80;;;14.60;98.70;;;;;;5048924;28;20556;-50
2023/05/30 07:45:27;;;;;;;7.30;2.40;;;14.60;99.90;;;;;;5048257;28;20051;-52
2023/05/30 07:47:53;;;;;;;9.32;3.28;;;14.60;98.90;;;;;;5048721;28;20025;-50
2023/05/30 07:50:19;;;;;;;6.53;2.60;;;14.70;98.60;;;;;;5048591;28;20028;-52
2023/05/30 07:52:45;;;;;;;9.00;3.13;;;14.70;98.00;;;;;;5048857;28;20041;-53
2023/05/30 07:55:11;;;;;;;8.02;2.42;;;14.80;97.80;;;;;;5048548;28;20029;-53
2023/05/30 07:57:36;;;;;;;10.77;2.92;;;14.60;97.70;;;;;;5048461;28;20053;-51
2023/05/30 08:00:08;;;;;;;7.68;3.13;;;14.60;98.30;;;;;;5048469;28;20067;-53
2023/05/30 08:02:37;;;;;;;11.68;2.95;;;14.50;99.60;;;;;;5048271;28;20037;-49
2023/05/30 08:05:03;;;;;;;7.22;3.15;;;14.60;99.00;;;;;;5046700;28;20033;-52
2023/05/30 08:07:31;;;;;;;10.45;2.88;;;14.70;99.70;;;;;;5029895;28;20394;-47
2023/05/30 08:09:57;;;;;;;8.20;3.13;;;14.70;98.00;;;;;;5063723;22;20639;-50
2023/05/30 08:12:28;;;;;;;7.43;3.25;;;14.80;98.50;;;;;;5047597;28;20028;-49
2023/05/30 08:14:55;;;;;;;7.82;3.17;;;14.90;97.90;;;;;;5047164;28;20488;-51
2023/05/30 08:17:26;;;;;;;6.03;2.58;;;14.80;97.60;;;;;;5047813;28;20403;-50
2023/05/30 08:19:53;;;;;;;6.38;2.63;;;14.80;97.60;;;;;;5047908;28;20822;-51
2023/05/30 08:22:21;;;;;;;8.18;2.63;;;14.80;98.70;;;;;;5047741;28;20111;-51
2023/05/30 08:24:55;;;;;;;8.55;3.40;;;14.90;98.90;;;;;;5048049;28;20374;-50
2023/05/30 08:27:21;;;;;;;7.38;2.88;;;14.90;97.20;;;;;;5048305;28;20039;-50
2023/05/30 08:29:50;;;;;;;8.20;2.95;;;14.90;96.70;;;;;;5052354;28;20029;-50
2023/05/30 08:32:17;;;;;;;8.98;2.90;;;14.90;97.40;;;;;;5051902;28;20116;-52
2023/05/30 08:34:44;;;;;;;7.25;3.25;;;15.00;97.20;;;;;;5051483;28;20036;-50
2023/05/30 08:37:10;;;;;;;9.43;3.00;;;15.10;96.80;;;;;;5051881;28;20116;-51
2023/05/30 08:39:35;;;;;;;11.73;3.85;;;15.00;97.00;;;;;;5051743;28;20478;-52
2023/05/30 08:42:01;;;;;;;7.57;2.92;;;15.00;97.20;;;;;;5051821;28;20036;-51
2023/05/30 08:44:28;;;;;;;11.73;3.33;;;15.00;98.20;;;;;;5051627;28;20438;-50
2023/05/30 08:46:55;;;;;;;7.93;3.05;;;15.10;97.90;;;;;;5051668;28;20064;-50
2023/05/30 08:49:23;;;;;;;9.15;3.75;;;15.20;99.20;;;;;;5051777;28;20369;-50
2023/05/30 08:51:50;;;;;;;4.78;2.70;;;15.40;99.40;;;;;;5033335;28;20114;-50
2023/05/30 08:54:21;;;;;;;9.30;3.75;;;15.50;97.50;;;;;;5051607;28;20032;-52
2023/05/30 08:56:58;;;;;;;6.32;2.97;;;15.40;97.60;;;;;;5047566;28;20440;-52
2023/05/30 08:59:26;;;;;;;7.43;3.10;;;15.60;97.70;;;;;;5047757;28;20473;-52
2023/05/30 09:01:53;;;;;;;8.57;3.22;;;15.60;97.40;;;;;;5047011;28;20437;-51
2023/05/30 09:04:21;;;;;;;9.80;3.13;;;15.70;97.20;;;;;;5048010;28;20031;-48
2023/05/30 09:06:48;;;;;;;9.18;3.50;;;15.60;96.70;;;;;;5047343;28;20067;-49
2023/05/30 09:09:15;;;;;;;6.13;2.85;;;15.50;96.90;;;;;;5047579;28;20025;-50
2023/05/30 09:11:42;;;;;;;7.07;3.35;;;15.60;96.90;;;;;;5046939;28;20155;-51
2023/05/30 09:14:08;;;;;;;8.63;3.50;;;15.60;97.00;;;;;;5047567;28;20103;-51
2023/05/30 09:16:35;;;;;;;6.35;2.80;;;15.60;96.50;;;;;;5047559;28;20235;-53
2023/05/30 09:19:02;;;;;;;4.20;2.50;;;15.70;96.10;;;;;;5047983;28;20021;-52
2023/05/30 09:21:29;;;;;;;6.22;2.60;;;15.80;96.70;;;;;;5047445;28;20082;-49
2023/05/30 09:23:54;;;;;;;7.03;3.13;;;15.80;96.60;;;;;;5047448;28;20056;-53
2023/05/30 09:26:20;;;;;;;9.38;2.88;;;16.00;96.20;;;;;;5047562;28;20114;-52
2023/05/30 09:28:47;;;;;;;9.57;3.25;;;16.00;96.40;;;;;;5046853;28;20033;-50
2023/05/30 09:31:14;;;;;;;7.63;2.78;;;16.00;96.00;;;;;;5047113;28;20036;-50
2023/05/30 09:33:41;;;;;;;6.53;2.85;;;16.10;95.70;;;;;;5047557;28;20397;-49
2023/05/30 09:36:07;;;;;;;8.35;3.53;;;16.20;96.30;;;;;;5047352;28;20025;-52
2023/05/30 09:38:33;;;;;;;5.82;3.10;;;16.20;95.50;;;;;;5045916;28;20126;-51
2023/05/30 09:41:05;;;;;;;5.70;2.42;;;16.10;95.60;;;;;;5046882;28;20048;-50
2023/05/30 09:43:33;;;;;;;7.32;3.20;;;16.10;95.20;;;;;;5047794;28;20029;-51
2023/05/30 09:46:04;;;;;;;6.20;2.97;;;16.20;94.60;;;;;;5046065;28;20035;-57
2023/05/30 09:48:31;;;;;;;7.78;2.60;;;16.20;96.80;;;;;;5050575;28;20025;-53
2023/05/30 09:51:01;;;;;;;7.53;2.53;;;16.30;96.30;;;;;;5050022;28;20147;-50
2023/05/30 09:53:31;;;;;;;5.20;2.60;;;16.50;95.90;;;;;;5050983;28;20576;-49
2023/05/30 09:55:57;;;;;;;6.00;2.83;;;16.60;97.00;;;;;;5050720;28;20056;-51
2023/05/30 09:58:23;;;;;;;6.72;2.90;;;16.70;95.00;;;;;;5050722;28;20032;-50
2023/05/30 10:00:53;;;;;;;6.85;2.58;;;16.90;95.00;;;;;;5050609;28;20059;-50
2023/05/30 10:03:20;;;;;;;9.00;3.05;;;17.00;93.50;;;;;;5050510;28;20032;-49
2023/05/30 10:05:46;;;;;;;6.13;2.55;;;16.90;93.80;;;;;;5050391;28;20055;-49
2023/05/30 10:08:13;;;;;;;5.57;2.40;;;17.00;94.40;;;;;;5049959;28;20029;-50
2023/05/30 10:10:43;;;;;;;7.95;2.65;;;16.90;93.00;;;;;;5032378;28;20366;-50
2023/05/30 10:13:08;;;;;;;8.40;2.47;;;16.90;94.60;;;;;;5050717;28;20041;-53
2023/05/30 10:15:35;;;;;;;4.32;2.13;;;17.10;93.70;;;;;;5050520;28;20032;-50
2023/05/30 10:18:09;;;;;;;6.82;2.20;;;17.00;92.70;;;;;;5050777;28;20017;-49
2023/05/30 10:20:44;;;;;;;7.55;3.00;;;17.00;93.10;;;;;;5050236;28;20052;-50
2023/05/30 10:23:12;;;;;;;5.97;2.33;;;17.00;93.10;;;;;;5050002;28;20044;-50
2023/05/30 10:25:54;;;;;;;6.50;2.80;;;17.00;93.80;;;;;;5049610;28;20377;-52
2023/05/30 10:28:26;;;;;;;7.10;2.58;;;17.00;95.10;;;;;;5050383;28;20052;-51
2023/05/30 10:30:53;;;;;;;7.75;2.22;;;17.10;92.90;;;;;;5047242;28;20108;-50
2023/05/30 10:33:20;;;;;;;6.40;2.28;;;17.20;92.50;;;;;;5047589;28;20351;-51
2023/05/30 10:35:46;;;;;;;6.45;2.45;;;17.30;93.40;;;;;;5046226;28;20025;-48
2023/05/30 10:38:13;;;;;;;9.63;2.63;;;17.30;92.50;;;;;;5047812;28;20402;-54
2023/05/30 10:41:00;;;;;;;11.50;3.15;;;17.40;93.20;;;;;;5045446;28;20029;-47
2023/05/30 10:43:40;;;;;;;6.43;2.15;;;17.40;92.40;;;;;;5046651;28;20095;-52
2023/05/30 10:46:24;;;;;;;8.43;2.78;;;17.50;93.20;;;;;;5028200;28;20036;-49
2023/05/30 10:49:02;;;;;;;5.90;2.80;;;17.60;91.90;;;;;;5046376;28;20521;-47
2023/05/30 10:51:27;;;;;;;5.32;2.30;;;17.70;92.50;;;;;;5045722;28;20029;-51
2023/05/30 10:53:55;;;;;;;4.82;2.30;;;17.90;92.10;;;;;;5047158;28;20024;-50
2023/05/30 10:56:34;;;;;;;7.05;2.25;;;17.90;91.40;;;;;;5046975;28;20041;-49
2023/05/30 10:59:01;;;;;;;6.05;2.20;;;18.00;92.00;;;;;;5046177;28;20108;-50
2023/05/30 11:01:31;;;;;;;4.97;2.60;;;18.10;91.40;;;;;;5046179;28;20025;-54
2023/05/30 11:04:04;;;;;;;5.25;2.22;;;18.10;91.00;;;;;;5046953;28;20029;-51
2023/05/30 11:06:33;;;;;;;7.50;2.28;;;18.10;91.40;;;;;;5046986;28;20056;-50
2023/05/30 11:09:14;;;;;;;6.85;2.70;;;18.10;90.90;;;;;;5028299;28;20120;-49
2023/05/30 11:11:41;;;;;;;5.88;2.65;;;18.10;91.20;;;;;;5044127;28;20252;-50
2023/05/30 11:14:09;;;;;;;8.55;2.53;;;18.20;91.30;;;;;;5046800;28;20036;-49
2023/05/30 11:17:08;;;;;;;7.32;2.72;;;18.30;91.30;;;;;;5045518;28;20033;-49
2023/05/30 11:19:39;;;;;;;7.18;2.13;;;18.20;90.60;;;;;;5013234;28;20072;-50
2023/05/30 11:22:15;;;;;;;5.28;2.28;;;18.30;90.40;;;;;;5046132;28;20128;-48
2023/05/30 11:24:42;;;;;;;6.72;2.40;;;18.40;90.40;;;;;;5046625;28;20029;-53
2023/05/30 11:27:15;;;;;;;6.38;2.47;;;18.40;88.50;;;;;;5046341;28;20057;-52
2023/05/30 11:29:47;;;;;;;7.78;2.60;;;18.40;89.90;;;;;;5046055;28;20455;-48
2023/05/30 11:32:17;;;;;;;7.60;2.35;;;18.50;89.50;;;;;;5046265;28;20627;-50
2023/05/30 11:34:43;;;;;;;4.65;1.92;;;18.50;89.50;;;;;;5048949;28;20087;-50
2023/05/30 11:37:10;;;;;;;7.78;2.60;;;18.60;91.60;;;;;;5049356;28;20481;-50
2023/05/30 11:39:36;;;;;;;6.40;2.22;;;18.60;89.10;;;;;;5048566;28;20024;-50
2023/05/30 11:42:03;;;;;;;8.18;3.10;;;18.70;90.50;;;;;;5048550;28;20061;-48
2023/05/30 11:44:32;;;;;;;6.68;2.55;;;18.70;88.20;;;;;;5049022;28;20369;-50
2023/05/30 11:47:02;;;;;;;5.18;2.40;;;18.60;89.60;;;;;;5044561;28;20064;-51
2023/05/30 11:49:28;;;;;;;8.00;3.08;;;18.60;89.20;;;;;;5049140;28;20029;-49
2023/05/30 11:51:54;;;;;;;7.45;2.80;;;18.70;90.30;;;;;;5048636;28;20032;-50
2023/05/30 11:54:20;;;;;;;7.40;2.72;;;18.80;91.20;;;;;;5048810;28;20020;-49
2023/05/30 11:56:47;;;;;;;6.32;2.60;;;18.80;89.70;;;;;;5030920;28;20037;-49
2023/05/30 11:59:21;;;;;;;7.97;3.03;;;18.90;90.10;;;;;;5048982;28;20028;-50
2023/05/30 12:01:51;;;;;;;7.22;3.15;;;18.80;89.20;;;;;;5046732;28;20466;-49
2023/05/30 12:04:19;;;;;;;8.73;2.55;;;18.70;89.80;;;;;;5047841;28;20031;-50
2023/05/30 12:06:45;;;;;;;6.78;3.10;;;18.70;90.30;;;;;;5047851;28;20021;-48
2023/05/30 12:09:11;;;;;;;5.50;2.90;;;18.80;90.20;;;;;;5047667;28;20531;-47
2023/05/30 12:11:37;;;;;;;6.93;2.70;;;18.90;90.50;;;;;;5047186;28;20025;-50
2023/05/30 12:14:03;;;;;;;5.40;2.50;;;19.00;88.90;;;;;;5047756;28;20017;-48
2023/05/30 12:16:29;;;;;;;6.82;2.45;;;18.90;89.80;;;;;;5048524;28;20036;-50
2023/05/30 12:18:57;;;;;;;7.07;3.20;;;19.00;89.20;;;;;;5048444;28;20465;-48
2023/05/30 12:21:23;;;;;;;6.97;2.78;;;19.00;88.50;;;;;;5047964;28;20025;-48
2023/05/30 12:23:48;;;;;;;5.75;2.30;;;19.10;87.70;;;;;;5048183;28;20112;-49
2023/05/30 12:26:18;;;;;;;6.80;2.85;;;19.10;87.40;;;;;;5048131;28;20468;-48
2023/05/30 12:28:46;;;;;;;8.18;2.47;;;19.10;86.90;;;;;;5030461;28;20029;-50
2023/05/30 12:31:23;;;;;;;6.18;2.60;;;19.20;87.40;;;;;;5048240;28;20389;-50
2023/05/30 12:33:49;;;;;;;5.35;2.50;;;19.20;86.70;;;;;;5049059;28;20021;-49
2023/05/30 12:36:15;;;;;;;7.45;2.67;;;19.30;87.50;;;;;;5043701;28;20072;-50
2023/05/30 12:38:41;;;;;;;4.03;2.22;;;19.30;86.40;;;;;;5046307;28;20064;-49
2023/05/30 12:41:07;;;;;;;3.67;2.17;;;19.40;86.70;;;;;;5045676;28;20039;-51
2023/05/30 12:43:32;;;;;;;14.45;6.45;;;19.40;87.10;;;;;;5044112;28;20033;-51
2023/05/30 12:45:59;;;;;;;5.70;2.70;;;19.40;87.50;;;;;;5045031;28;20060;-51
2023/05/30 12:48:25;;;;;;;5.63;3.00;;;19.50;87.30;;;;;;5044071;28;20021;-49